sensor_id;sensor_type;location;lat;lon;timestamp;P1;durP1;ratioP1;P2;durP2;ratioP2
60819;SDS011;46641;48.904;9.126;2023-02-18T00:03:33;1.70;;;1.60;;
60819;SDS011;46641;48.904;9.126;2023-02-18T00:08:23;1.55;;;1.40;;
60819;SDS011;46641;48.904;9.126;2023-02-18T00:13:14;1.58;;;1.30;;
60819;SDS011;46641;48.904;9.126;2023-02-18T00:18:04;1.27;;;1.17;;
60819;SDS011;46641;48.904;9.126;2023-02-18T00:22:55;1.53;;;1.30;;
60819;SDS011;46641;48.904;9.126;2023-02-18T00:27:46;1.50;;;1.40;;
60819;SDS011;46641;48.904;9.126;2023-02-18T00:32:36;1.23;;;1.17;;
60819;SDS011;46641;48.904;9.126;2023-02-18T00:37:26;1.33;;;1.23;;
60819;SDS011;46641;48.904;9.126;2023-02-18T00:42:17;0.90;;;0.90;;
60819;SDS011;46641;48.904;9.126;2023-02-18T00:47:07;1.40;;;1.30;;
60819;SDS011;46641;48.904;9.126;2023-02-18T00:51:57;1.43;;;1.37;;
60819;SDS011;46641;48.904;9.126;2023-02-18T00:56:47;1.70;;;1.40;;
60819;SDS011;46641;48.904;9.126;2023-02-18T01:01:38;1.80;;;1.70;;
60819;SDS011;46641;48.904;9.126;2023-02-18T01:06:29;2.93;;;2.03;;
60819;SDS011;46641;48.904;9.126;2023-02-18T01:11:19;2.92;;;1.60;;
60819;SDS011;46641;48.904;9.126;2023-02-18T01:16:10;2.37;;;1.80;;
60819;SDS011;46641;48.904;9.126;2023-02-18T01:21:00;1.73;;;1.63;;
60819;SDS011;46641;48.904;9.126;2023-02-18T01:25:51;1.83;;;1.73;;
60819;SDS011;46641;48.904;9.126;2023-02-18T01:30:41;1.50;;;1.40;;
60819;SDS011;46641;48.904;9.126;2023-02-18T01:35:32;2.63;;;2.20;;
60819;SDS011;46641;48.904;9.126;2023-02-18T01:40:24;2.30;;;2.10;;
60819;SDS011;46641;48.904;9.126;2023-02-18T01:50:24;2.00;;;1.80;;
60819;SDS011;46641;48.904;9.126;2023-02-18T01:55:16;2.33;;;2.10;;
60819;SDS011;46641;48.904;9.126;2023-02-18T02:00:08;1.77;;;1.67;;
60819;SDS011;46641;48.904;9.126;2023-02-18T02:05:01;1.80;;;1.70;;
60819;SDS011;46641;48.904;9.126;2023-02-18T02:09:51;2.27;;;2.00;;
60819;SDS011;46641;48.904;9.126;2023-02-18T02:35:43;2.57;;;2.37;;
60819;SDS011;46641;48.904;9.126;2023-02-18T02:56:22;2.90;;;2.70;;
60819;SDS011;46641;48.904;9.126;2023-02-18T03:01:23;1.90;;;1.80;;
60819;SDS011;46641;48.904;9.126;2023-02-18T03:06:34;2.73;;;2.33;;
60819;SDS011;46641;48.904;9.126;2023-02-18T03:11:29;2.20;;;2.00;;
60819;SDS011;46641;48.904;9.126;2023-02-18T03:16:32;2.97;;;2.67;;
60819;SDS011;46641;48.904;9.126;2023-02-18T03:21:31;1.87;;;1.77;;
60819;SDS011;46641;48.904;9.126;2023-02-18T03:26:26;3.13;;;2.53;;
60819;SDS011;46641;48.904;9.126;2023-02-18T03:31:20;2.83;;;2.63;;
60819;SDS011;46641;48.904;9.126;2023-02-18T03:36:15;1.87;;;1.77;;
60819;SDS011;46641;48.904;9.126;2023-02-18T03:41:07;2.20;;;2.00;;
60819;SDS011;46641;48.904;9.126;2023-02-18T03:45:57;2.67;;;2.47;;
60819;SDS011;46641;48.904;9.126;2023-02-18T03:50:48;2.33;;;2.13;;
60819;SDS011;46641;48.904;9.126;2023-02-18T03:55:38;3.87;;;2.40;;
60819;SDS011;46641;48.904;9.126;2023-02-18T04:00:28;2.20;;;2.07;;
60819;SDS011;46641;48.904;9.126;2023-02-18T04:05:19;2.30;;;2.10;;
60819;SDS011;46641;48.904;9.126;2023-02-18T04:10:09;2.30;;;2.10;;
60819;SDS011;46641;48.904;9.126;2023-02-18T04:15:00;2.17;;;2.07;;
60819;SDS011;46641;48.904;9.126;2023-02-18T04:19:50;2.17;;;2.07;;
60819;SDS011;46641;48.904;9.126;2023-02-18T04:24:40;2.22;;;2.03;;
60819;SDS011;46641;48.904;9.126;2023-02-18T04:29:31;2.43;;;2.00;;
60819;SDS011;46641;48.904;9.126;2023-02-18T04:34:21;2.30;;;2.10;;
60819;SDS011;46641;48.904;9.126;2023-02-18T04:39:12;2.47;;;2.27;;
60819;SDS011;46641;48.904;9.126;2023-02-18T04:44:02;2.10;;;1.90;;
60819;SDS011;46641;48.904;9.126;2023-02-18T04:48:52;2.10;;;1.90;;
60819;SDS011;46641;48.904;9.126;2023-02-18T04:53:43;2.22;;;1.92;;
60819;SDS011;46641;48.904;9.126;2023-02-18T04:58:33;2.30;;;2.20;;
60819;SDS011;46641;48.904;9.126;2023-02-18T05:03:23;2.83;;;2.00;;
60819;SDS011;46641;48.904;9.126;2023-02-18T05:08:14;2.40;;;2.20;;
60819;SDS011;46641;48.904;9.126;2023-02-18T05:13:05;2.27;;;2.07;;
60819;SDS011;46641;48.904;9.126;2023-02-18T05:17:55;2.23;;;1.93;;
60819;SDS011;46641;48.904;9.126;2023-02-18T05:22:46;2.63;;;2.43;;
60819;SDS011;46641;48.904;9.126;2023-02-18T05:27:36;2.57;;;2.10;;
60819;SDS011;46641;48.904;9.126;2023-02-18T05:32:26;2.37;;;2.17;;
60819;SDS011;46641;48.904;9.126;2023-02-18T05:37:17;1.83;;;1.60;;
60819;SDS011;46641;48.904;9.126;2023-02-18T05:42:07;2.07;;;1.87;;
60819;SDS011;46641;48.904;9.126;2023-02-18T05:46:58;1.77;;;1.67;;
60819;SDS011;46641;48.904;9.126;2023-02-18T05:51:53;1.07;;;1.07;;
60819;SDS011;46641;48.904;9.126;2023-02-18T05:56:43;1.40;;;1.30;;
60819;SDS011;46641;48.904;9.126;2023-02-18T06:01:34;1.75;;;1.65;;
60819;SDS011;46641;48.904;9.126;2023-02-18T06:06:24;1.13;;;1.13;;
60819;SDS011;46641;48.904;9.126;2023-02-18T06:11:14;1.50;;;1.40;;
60819;SDS011;46641;48.904;9.126;2023-02-18T06:16:05;1.93;;;1.47;;
60819;SDS011;46641;48.904;9.126;2023-02-18T06:20:55;1.50;;;1.40;;
60819;SDS011;46641;48.904;9.126;2023-02-18T06:25:47;1.37;;;1.27;;
60819;SDS011;46641;48.904;9.126;2023-02-18T06:30:39;1.63;;;1.53;;
60819;SDS011;46641;48.904;9.126;2023-02-18T06:35:29;1.60;;;1.50;;
60819;SDS011;46641;48.904;9.126;2023-02-18T06:40:20;1.17;;;1.07;;
60819;SDS011;46641;48.904;9.126;2023-02-18T06:45:11;1.37;;;1.17;;
60819;SDS011;46641;48.904;9.126;2023-02-18T06:50:01;1.57;;;1.47;;
60819;SDS011;46641;48.904;9.126;2023-02-18T06:54:52;1.90;;;1.30;;
60819;SDS011;46641;48.904;9.126;2023-02-18T06:59:42;1.40;;;1.30;;
60819;SDS011;46641;48.904;9.126;2023-02-18T07:04:33;1.50;;;1.40;;
60819;SDS011;46641;48.904;9.126;2023-02-18T07:09:23;1.48;;;1.38;;
60819;SDS011;46641;48.904;9.126;2023-02-18T07:14:13;1.60;;;1.30;;
60819;SDS011;46641;48.904;9.126;2023-02-18T07:19:04;1.20;;;1.20;;
60819;SDS011;46641;48.904;9.126;2023-02-18T07:23:54;1.40;;;1.30;;
60819;SDS011;46641;48.904;9.126;2023-02-18T07:28:44;1.90;;;1.40;;
60819;SDS011;46641;48.904;9.126;2023-02-18T07:33:35;1.30;;;1.20;;
60819;SDS011;46641;48.904;9.126;2023-02-18T07:38:26;1.80;;;1.70;;
60819;SDS011;46641;48.904;9.126;2023-02-18T07:43:17;1.70;;;1.60;;
60819;SDS011;46641;48.904;9.126;2023-02-18T07:48:07;1.77;;;1.67;;
60819;SDS011;46641;48.904;9.126;2023-02-18T07:52:58;1.90;;;1.80;;
60819;SDS011;46641;48.904;9.126;2023-02-18T07:57:48;2.20;;;2.00;;
60819;SDS011;46641;48.904;9.126;2023-02-18T08:02:49;2.30;;;2.00;;
60819;SDS011;46641;48.904;9.126;2023-02-18T08:07:40;1.97;;;1.87;;
60819;SDS011;46641;48.904;9.126;2023-02-18T08:12:30;2.40;;;2.20;;
60819;SDS011;46641;48.904;9.126;2023-02-18T08:17:21;1.67;;;1.57;;
60819;SDS011;46641;48.904;9.126;2023-02-18T08:22:11;2.05;;;1.83;;
60819;SDS011;46641;48.904;9.126;2023-02-18T08:27:01;4.10;;;1.85;;
60819;SDS011;46641;48.904;9.126;2023-02-18T08:31:51;1.60;;;1.50;;
60819;SDS011;46641;48.904;9.126;2023-02-18T08:36:43;2.20;;;2.00;;
60819;SDS011;46641;48.904;9.126;2023-02-18T08:41:33;1.87;;;1.53;;
60819;SDS011;46641;48.904;9.126;2023-02-18T08:46:23;2.00;;;1.80;;
60819;SDS011;46641;48.904;9.126;2023-02-18T08:51:14;2.57;;;2.37;;
60819;SDS011;46641;48.904;9.126;2023-02-18T08:56:08;2.10;;;1.90;;
60819;SDS011;46641;48.904;9.126;2023-02-18T09:01:00;2.00;;;1.80;;
60819;SDS011;46641;48.904;9.126;2023-02-18T09:05:51;1.90;;;1.80;;
60819;SDS011;46641;48.904;9.126;2023-02-18T09:10:41;1.83;;;1.73;;
60819;SDS011;46641;48.904;9.126;2023-02-18T09:15:31;1.73;;;1.53;;
60819;SDS011;46641;48.904;9.126;2023-02-18T09:20:21;1.87;;;1.30;;
60819;SDS011;46641;48.904;9.126;2023-02-18T09:25:12;1.10;;;1.00;;
60819;SDS011;46641;48.904;9.126;2023-02-18T09:30:02;1.10;;;1.10;;
60819;SDS011;46641;48.904;9.126;2023-02-18T09:34:53;0.90;;;0.90;;
60819;SDS011;46641;48.904;9.126;2023-02-18T09:39:44;1.40;;;1.30;;
60819;SDS011;46641;48.904;9.126;2023-02-18T09:44:38;1.40;;;1.20;;
60819;SDS011;46641;48.904;9.126;2023-02-18T09:49:36;2.30;;;1.47;;
60819;SDS011;46641;48.904;9.126;2023-02-18T09:54:29;1.53;;;1.40;;
60819;SDS011;46641;48.904;9.126;2023-02-18T09:59:20;0.93;;;0.93;;
60819;SDS011;46641;48.904;9.126;2023-02-18T10:04:47;1.70;;;1.60;;
60819;SDS011;46641;48.904;9.126;2023-02-18T10:09:32;2.23;;;1.70;;
60819;SDS011;46641;48.904;9.126;2023-02-18T10:14:25;1.67;;;1.57;;
60819;SDS011;46641;48.904;9.126;2023-02-18T10:19:20;2.77;;;1.70;;
60819;SDS011;46641;48.904;9.126;2023-02-18T10:29:24;2.30;;;1.40;;
60819;SDS011;46641;48.904;9.126;2023-02-18T10:34:35;1.40;;;1.30;;
60819;SDS011;46641;48.904;9.126;2023-02-18T10:39:40;3.33;;;1.90;;
60819;SDS011;46641;48.904;9.126;2023-02-18T10:49:58;1.70;;;1.60;;
60819;SDS011;46641;48.904;9.126;2023-02-18T10:55:00;1.83;;;1.70;;
60819;SDS011;46641;48.904;9.126;2023-02-18T10:59:54;2.50;;;1.30;;
60819;SDS011;46641;48.904;9.126;2023-02-18T11:04:45;1.13;;;1.10;;
60819;SDS011;46641;48.904;9.126;2023-02-18T11:09:45;1.70;;;1.30;;
60819;SDS011;46641;48.904;9.126;2023-02-18T11:19:37;3.40;;;1.60;;
60819;SDS011;46641;48.904;9.126;2023-02-18T11:24:28;1.80;;;1.60;;
60819;SDS011;46641;48.904;9.126;2023-02-18T11:29:19;1.90;;;1.60;;
60819;SDS011;46641;48.904;9.126;2023-02-18T11:34:13;2.67;;;1.70;;
60819;SDS011;46641;48.904;9.126;2023-02-18T11:39:19;1.70;;;1.60;;
60819;SDS011;46641;48.904;9.126;2023-02-18T11:44:25;1.57;;;1.47;;
60819;SDS011;46641;48.904;9.126;2023-02-18T11:49:20;3.57;;;2.40;;
60819;SDS011;46641;48.904;9.126;2023-02-18T11:54:21;1.60;;;1.50;;
60819;SDS011;46641;48.904;9.126;2023-02-18T11:59:14;2.37;;;2.13;;
60819;SDS011;46641;48.904;9.126;2023-02-18T12:09:24;2.63;;;1.87;;
60819;SDS011;46641;48.904;9.126;2023-02-18T12:14:19;2.83;;;1.70;;
60819;SDS011;46641;48.904;9.126;2023-02-18T12:24:32;1.47;;;1.37;;
60819;SDS011;46641;48.904;9.126;2023-02-18T12:34:51;2.33;;;2.00;;
60819;SDS011;46641;48.904;9.126;2023-02-18T12:50:42;2.00;;;1.90;;
60819;SDS011;46641;48.904;9.126;2023-02-18T13:11:13;1.67;;;1.57;;
60819;SDS011;46641;48.904;9.126;2023-02-18T13:16:14;1.80;;;1.70;;
60819;SDS011;46641;48.904;9.126;2023-02-18T13:21:07;2.30;;;2.10;;
60819;SDS011;46641;48.904;9.126;2023-02-18T13:26:02;2.27;;;2.07;;
60819;SDS011;46641;48.904;9.126;2023-02-18T13:41:17;2.10;;;2.00;;
60819;SDS011;46641;48.904;9.126;2023-02-18T13:46:16;2.40;;;2.20;;
60819;SDS011;46641;48.904;9.126;2023-02-18T13:51:10;2.37;;;2.17;;
60819;SDS011;46641;48.904;9.126;2023-02-18T13:56:09;2.87;;;2.67;;
60819;SDS011;46641;48.904;9.126;2023-02-18T14:05:59;2.85;;;2.55;;
60819;SDS011;46641;48.904;9.126;2023-02-18T14:16:02;1.93;;;1.83;;
60819;SDS011;46641;48.904;9.126;2023-02-18T14:20:57;2.93;;;2.10;;
60819;SDS011;46641;48.904;9.126;2023-02-18T14:30:46;2.80;;;2.57;;
60819;SDS011;46641;48.904;9.126;2023-02-18T14:40:40;3.07;;;2.77;;
60819;SDS011;46641;48.904;9.126;2023-02-18T14:51:08;2.97;;;2.47;;
60819;SDS011;46641;48.904;9.126;2023-02-18T14:56:01;2.97;;;2.70;;
60819;SDS011;46641;48.904;9.126;2023-02-18T15:00:54;3.27;;;2.83;;
60819;SDS011;46641;48.904;9.126;2023-02-18T15:05:45;3.00;;;2.70;;
60819;SDS011;46641;48.904;9.126;2023-02-18T15:15:34;2.50;;;2.30;;
60819;SDS011;46641;48.904;9.126;2023-02-18T15:20:25;2.80;;;2.50;;
60819;SDS011;46641;48.904;9.126;2023-02-18T15:25:17;3.00;;;2.40;;
60819;SDS011;46641;48.904;9.126;2023-02-18T15:30:25;2.77;;;2.57;;
60819;SDS011;46641;48.904;9.126;2023-02-18T15:35:20;3.00;;;2.63;;
60819;SDS011;46641;48.904;9.126;2023-02-18T15:40:15;2.33;;;2.13;;
60819;SDS011;46641;48.904;9.126;2023-02-18T15:50:02;3.70;;;2.23;;
60819;SDS011;46641;48.904;9.126;2023-02-18T15:54:52;3.53;;;2.40;;
60819;SDS011;46641;48.904;9.126;2023-02-18T15:59:45;2.40;;;2.20;;
60819;SDS011;46641;48.904;9.126;2023-02-18T16:04:44;2.87;;;2.10;;
60819;SDS011;46641;48.904;9.126;2023-02-18T16:09:40;2.73;;;2.23;;
60819;SDS011;46641;48.904;9.126;2023-02-18T16:19:24;2.30;;;2.10;;
60819;SDS011;46641;48.904;9.126;2023-02-18T16:24:25;2.00;;;1.90;;
60819;SDS011;46641;48.904;9.126;2023-02-18T16:29:34;2.17;;;1.83;;
60819;SDS011;46641;48.904;9.126;2023-02-18T16:34:26;2.00;;;1.80;;
60819;SDS011;46641;48.904;9.126;2023-02-18T16:39:16;1.93;;;1.70;;
60819;SDS011;46641;48.904;9.126;2023-02-18T16:44:09;2.22;;;2.03;;
60819;SDS011;46641;48.904;9.126;2023-02-18T16:49:02;2.60;;;2.40;;
60819;SDS011;46641;48.904;9.126;2023-02-18T16:53:52;2.27;;;2.07;;
60819;SDS011;46641;48.904;9.126;2023-02-18T16:58:43;2.60;;;2.40;;
60819;SDS011;46641;48.904;9.126;2023-02-18T17:03:33;2.57;;;2.37;;
60819;SDS011;46641;48.904;9.126;2023-02-18T17:08:24;2.83;;;2.63;;
60819;SDS011;46641;48.904;9.126;2023-02-18T17:13:17;2.67;;;2.33;;
60819;SDS011;46641;48.904;9.126;2023-02-18T17:18:09;3.20;;;2.90;;
60819;SDS011;46641;48.904;9.126;2023-02-18T17:23:00;2.73;;;2.53;;
60819;SDS011;46641;48.904;9.126;2023-02-18T17:27:51;2.83;;;2.53;;
60819;SDS011;46641;48.904;9.126;2023-02-18T17:32:41;3.13;;;2.60;;
60819;SDS011;46641;48.904;9.126;2023-02-18T17:37:32;2.83;;;2.63;;
60819;SDS011;46641;48.904;9.126;2023-02-18T17:42:23;2.70;;;2.50;;
60819;SDS011;46641;48.904;9.126;2023-02-18T17:47:13;2.70;;;2.50;;
60819;SDS011;46641;48.904;9.126;2023-02-18T17:52:04;2.53;;;2.33;;
60819;SDS011;46641;48.904;9.126;2023-02-18T17:56:54;3.00;;;2.80;;
60819;SDS011;46641;48.904;9.126;2023-02-18T18:01:44;2.83;;;2.40;;
60819;SDS011;46641;48.904;9.126;2023-02-18T18:06:35;2.97;;;2.70;;
60819;SDS011;46641;48.904;9.126;2023-02-18T18:11:25;2.73;;;2.53;;
60819;SDS011;46641;48.904;9.126;2023-02-18T18:16:16;2.83;;;2.60;;
60819;SDS011;46641;48.904;9.126;2023-02-18T18:21:14;3.10;;;2.80;;
60819;SDS011;46641;48.904;9.126;2023-02-18T18:26:09;3.00;;;2.63;;
60819;SDS011;46641;48.904;9.126;2023-02-18T18:31:00;2.73;;;2.53;;
60819;SDS011;46641;48.904;9.126;2023-02-18T18:35:51;2.90;;;2.70;;
60819;SDS011;46641;48.904;9.126;2023-02-18T18:40:43;2.60;;;2.40;;
60819;SDS011;46641;48.904;9.126;2023-02-18T18:45:34;3.10;;;2.60;;
60819;SDS011;46641;48.904;9.126;2023-02-18T18:50:29;2.80;;;2.50;;
60819;SDS011;46641;48.904;9.126;2023-02-18T19:00:27;2.90;;;2.70;;
60819;SDS011;46641;48.904;9.126;2023-02-18T19:05:26;2.80;;;2.60;;
60819;SDS011;46641;48.904;9.126;2023-02-18T19:10:20;3.50;;;3.20;;
60819;SDS011;46641;48.904;9.126;2023-02-18T19:15:15;4.13;;;3.37;;
60819;SDS011;46641;48.904;9.126;2023-02-18T19:20:09;3.07;;;2.77;;
60819;SDS011;46641;48.904;9.126;2023-02-18T19:25:03;2.87;;;2.67;;
60819;SDS011;46641;48.904;9.126;2023-02-18T19:29:53;4.50;;;3.37;;
60819;SDS011;46641;48.904;9.126;2023-02-18T19:34:45;3.90;;;3.23;;
60819;SDS011;46641;48.904;9.126;2023-02-18T19:39:35;4.30;;;3.90;;
60819;SDS011;46641;48.904;9.126;2023-02-18T19:44:25;3.77;;;3.47;;
60819;SDS011;46641;48.904;9.126;2023-02-18T19:49:16;3.23;;;3.03;;
60819;SDS011;46641;48.904;9.126;2023-02-18T19:54:06;4.00;;;3.60;;
60819;SDS011;46641;48.904;9.126;2023-02-18T19:58:56;4.57;;;3.60;;
60819;SDS011;46641;48.904;9.126;2023-02-18T20:03:47;3.63;;;3.10;;
60819;SDS011;46641;48.904;9.126;2023-02-18T20:08:37;3.50;;;3.20;;
60819;SDS011;46641;48.904;9.126;2023-02-18T20:13:27;3.90;;;3.30;;
60819;SDS011;46641;48.904;9.126;2023-02-18T20:18:18;4.17;;;3.83;;
60819;SDS011;46641;48.904;9.126;2023-02-18T20:23:08;4.55;;;4.15;;
60819;SDS011;46641;48.904;9.126;2023-02-18T20:27:59;3.63;;;3.33;;
60819;SDS011;46641;48.904;9.126;2023-02-18T20:32:49;2.77;;;2.53;;
60819;SDS011;46641;48.904;9.126;2023-02-18T20:37:40;2.83;;;2.63;;
60819;SDS011;46641;48.904;9.126;2023-02-18T20:42:30;3.20;;;3.00;;
60819;SDS011;46641;48.904;9.126;2023-02-18T20:47:21;2.60;;;2.40;;
60819;SDS011;46641;48.904;9.126;2023-02-18T20:52:11;4.07;;;2.90;;
60819;SDS011;46641;48.904;9.126;2023-02-18T20:57:02;2.97;;;2.77;;
60819;SDS011;46641;48.904;9.126;2023-02-18T21:01:52;3.30;;;3.00;;
60819;SDS011;46641;48.904;9.126;2023-02-18T21:06:43;2.73;;;2.53;;
60819;SDS011;46641;48.904;9.126;2023-02-18T21:11:36;3.30;;;3.00;;
60819;SDS011;46641;48.904;9.126;2023-02-18T21:16:27;3.27;;;3.00;;
60819;SDS011;46641;48.904;9.126;2023-02-18T21:21:21;3.13;;;2.93;;
60819;SDS011;46641;48.904;9.126;2023-02-18T21:26:15;2.87;;;2.67;;
60819;SDS011;46641;48.904;9.126;2023-02-18T21:31:15;3.43;;;3.13;;
60819;SDS011;46641;48.904;9.126;2023-02-18T21:36:07;3.13;;;2.93;;
60819;SDS011;46641;48.904;9.126;2023-02-18T21:40:58;2.77;;;2.57;;
60819;SDS011;46641;48.904;9.126;2023-02-18T21:45:48;3.47;;;3.10;;
60819;SDS011;46641;48.904;9.126;2023-02-18T21:50:38;3.25;;;3.03;;
60819;SDS011;46641;48.904;9.126;2023-02-18T21:55:29;2.70;;;2.50;;
60819;SDS011;46641;48.904;9.126;2023-02-18T22:00:19;2.63;;;2.43;;
60819;SDS011;46641;48.904;9.126;2023-02-18T22:05:11;2.80;;;2.60;;
60819;SDS011;46641;48.904;9.126;2023-02-18T22:10:01;2.83;;;2.63;;
60819;SDS011;46641;48.904;9.126;2023-02-18T22:14:51;2.50;;;2.30;;
60819;SDS011;46641;48.904;9.126;2023-02-18T22:19:42;2.67;;;2.43;;
60819;SDS011;46641;48.904;9.126;2023-02-18T22:24:32;2.53;;;2.33;;
60819;SDS011;46641;48.904;9.126;2023-02-18T22:29:23;2.60;;;2.40;;
60819;SDS011;46641;48.904;9.126;2023-02-18T22:34:14;2.37;;;2.00;;
60819;SDS011;46641;48.904;9.126;2023-02-18T22:39:05;2.10;;;2.00;;
60819;SDS011;46641;48.904;9.126;2023-02-18T22:43:57;2.43;;;2.27;;
60819;SDS011;46641;48.904;9.126;2023-02-18T22:48:49;1.60;;;1.50;;
60819;SDS011;46641;48.904;9.126;2023-02-18T22:53:41;2.20;;;2.00;;
60819;SDS011;46641;48.904;9.126;2023-02-18T22:58:32;2.47;;;2.20;;
60819;SDS011;46641;48.904;9.126;2023-02-18T23:03:24;2.00;;;1.90;;
60819;SDS011;46641;48.904;9.126;2023-02-18T23:08:15;1.90;;;1.80;;
60819;SDS011;46641;48.904;9.126;2023-02-18T23:13:05;2.03;;;1.93;;
60819;SDS011;46641;48.904;9.126;2023-02-18T23:17:56;1.80;;;1.70;;
60819;SDS011;46641;48.904;9.126;2023-02-18T23:22:46;2.58;;;2.20;;
60819;SDS011;46641;48.904;9.126;2023-02-18T23:27:36;2.33;;;2.13;;
60819;SDS011;46641;48.904;9.126;2023-02-18T23:32:27;2.35;;;2.15;;
60819;SDS011;46641;48.904;9.126;2023-02-18T23:37:19;2.00;;;1.90;;
60819;SDS011;46641;48.904;9.126;2023-02-18T23:42:32;1.97;;;1.87;;
60819;SDS011;46641;48.904;9.126;2023-02-18T23:47:23;2.23;;;2.03;;
60819;SDS011;46641;48.904;9.126;2023-02-18T23:52:13;2.00;;;1.90;;
60819;SDS011;46641;48.904;9.126;2023-02-18T23:57:03;2.43;;;2.10;;
